Terminal Aerodrome Forecast
Issued by NWS Grand Forks, ND

Home | Current Version | Previous Version | Text Only | Print | Product List | Glossary Off
Versions: 1 2 3 4 5 6 7 8 9 10 11 12 13 14 15 16 17 18 19

000
FTUS43 KFGF 071843 AAA
TAFGFK
TAF AMD
KGFK 071843Z 0719/0818 30022G30KT 2SM -SN BLSN OVC015
      TEMPO 0719/0722 3/4SM -SN BLSN OVC025
     FM080000 31021KT P6SM OVC015
      TEMPO 0800/0802 3SM BLSN
     FM081300 32014KT P6SM OVC025=

USA.gov is the U.S. government's official web portal to all federal, state and local government web resources and services.